Time;durP1;ratioP1;P1;durP2;ratioP2;P2;SDS_P1;SDS_P2;PMS_P1;PMS_P2;Temp;Humidity;BMP_temperature;BMP_pressure;BME280_temperature;BME280_humidity;BME280_pressure;Samples;Min_cycle;Max_cycle;Signal;HPM_P1;HPM_P2
2022/10/03 00:01:15;;;;;;;7.05;1.55;;;;;;;7.68;100.00;102696.00;5116940;28;20103;-72
2022/10/03 00:03:54;;;;;;;4.95;1.60;;;;;;;7.65;100.00;102702.28;5116737;28;20056;-72
2022/10/03 00:06:43;;;;;;;4.10;1.42;;;;;;;7.64;100.00;102699.72;5116969;28;20068;-72
2022/10/03 00:09:34;;;;;;;4.95;1.45;;;;;;;7.57;100.00;102701.81;5117234;28;20020;-72
2022/10/03 00:12:36;;;;;;;5.07;1.60;;;;;;;7.51;100.00;102702.97;5117241;28;20063;-72
2022/10/03 00:15:12;;;;;;;5.28;1.55;;;;;;;7.46;100.00;102699.66;5116778;28;20413;-71
2022/10/03 00:17:47;;;;;;;7.35;1.45;;;;;;;7.43;100.00;102701.63;5116645;28;20067;-72
2022/10/03 00:20:18;;;;;;;8.77;1.50;;;;;;;7.38;100.00;102702.69;5115285;28;20114;-70
2022/10/03 00:23:26;;;;;;;4.40;1.40;;;;;;;7.34;100.00;102702.91;5116257;28;20081;-72
2022/10/03 00:26:25;;;;;;;5.35;1.10;;;;;;;7.33;100.00;102704.72;5094561;28;20498;-72
2022/10/03 00:29:19;;;;;;;5.45;1.65;;;;;;;7.30;100.00;102707.50;5116521;28;20093;-72
2022/10/03 00:31:59;;;;;;;7.95;1.65;;;;;;;7.27;100.00;102705.00;5116589;28;20062;-72
2022/10/03 00:34:34;;;;;;;6.03;1.50;;;;;;;7.27;100.00;102710.28;5116498;28;20032;-72
2022/10/03 00:37:21;;;;;;;11.02;1.85;;;;;;;7.31;100.00;102724.25;5116688;28;20034;-73
2022/10/03 00:40:04;;;;;;;6.90;1.48;;;;;;;7.34;100.00;102724.09;5116456;28;20031;-72
2022/10/03 00:42:54;;;;;;;8.98;1.98;;;;;;;7.36;100.00;102728.41;5116094;28;20028;-72
2022/10/03 00:45:37;;;;;;;8.38;1.60;;;;;;;7.37;100.00;102724.78;5116285;28;20039;-72
2022/10/03 00:48:39;;;;;;;8.50;2.30;;;;;;;7.36;100.00;102731.03;5115951;28;20035;-73
2022/10/03 00:51:09;;;;;;;;;;;;;;;7.33;100.00;102732.97;5116591;28;20024;-73
2022/10/03 00:53:50;;;;;;;8.45;1.67;;;;;;;7.30;100.00;102739.28;5115806;28;19955;-72
2022/10/03 00:56:33;;;;;;;6.50;1.42;;;;;;;7.29;100.00;102742.00;5115807;28;20104;-73
2022/10/03 00:59:16;;;;;;;5.75;1.50;;;;;;;7.29;100.00;102742.84;5114489;28;20024;-73
2022/10/03 01:01:47;;;;;;;12.45;2.13;;;;;;;7.31;100.00;102740.97;5115960;28;20038;-73
2022/10/03 01:04:39;;;;;;;9.67;1.70;;;;;;;7.33;100.00;102747.06;5115608;28;20035;-70
2022/10/03 01:07:21;;;;;;;8.13;1.73;;;;;;;7.34;100.00;102746.13;5086498;28;20269;-72
2022/10/03 01:10:05;;;;;;;;;;;;;;;7.32;100.00;102752.44;5116022;28;20065;-71
2022/10/03 01:12:59;;;;;;;3.88;1.30;;;;;;;7.28;100.00;102750.88;5115446;28;20360;-70
2022/10/03 01:15:50;;;;;;;7.97;1.30;;;;;;;7.27;100.00;102754.44;5115341;28;20023;-70
2022/10/03 01:18:44;;;;;;;7.78;1.70;;;;;;;7.31;100.00;102754.22;5115654;28;20031;-73
2022/10/03 01:21:19;;;;;;;12.82;1.80;;;;;;;7.37;100.00;102745.97;5115864;28;20028;-73
2022/10/03 01:24:06;;;;;;;5.88;1.50;;;;;;;7.43;100.00;102744.84;5115216;28;20047;-71
2022/10/03 01:26:56;;;;;;;5.93;1.45;;;;;;;7.51;100.00;102744.47;5115431;28;20035;-70
2022/10/03 01:32:30;;;;;;;8.48;1.63;;;;;;;7.54;100.00;102745.22;5115425;28;20043;-71
2022/10/03 01:34:59;;;;;;;5.72;1.33;;;;;;;7.54;100.00;102754.97;5115468;28;20028;-73
2022/10/03 01:37:39;;;;;;;7.57;1.60;;;;;;;7.55;100.00;102749.59;5114857;28;20057;-72
2022/10/03 01:40:38;;;;;;;11.05;2.03;;;;;;;7.58;100.00;102761.81;5114760;28;20595;-72
2022/10/03 01:43:12;;;;;;;7.63;1.52;;;;;;;7.58;100.00;102754.75;5109616;28;20036;-73
2022/10/03 01:46:05;;;;;;;6.35;1.38;;;;;;;7.56;100.00;102756.56;5114822;28;20099;-72
2022/10/03 01:48:48;;;;;;;7.18;1.77;;;;;;;7.57;100.00;102747.72;5115058;28;20035;-73
2022/10/03 01:51:20;;;;;;;8.93;2.45;;;;;;;7.59;100.00;102759.06;5114690;28;20032;-71
2022/10/03 01:54:17;;;;;;;7.57;1.70;;;;;;;7.63;100.00;102754.50;5114231;28;20027;-73
2022/10/03 01:57:34;;;;;;;8.40;1.85;;;;;;;7.62;100.00;102760.72;5114992;28;20032;-70
2022/10/03 02:00:22;;;;;;;7.35;1.70;;;;;;;7.59;100.00;102756.44;5114602;28;20046;-70
2022/10/03 02:03:14;;;;;;;9.13;1.75;;;;;;;7.57;100.00;102757.47;5114635;28;20027;-70
2022/10/03 02:05:58;;;;;;;;;;;;;;;7.58;100.00;102761.81;5114545;28;20031;-70
2022/10/03 02:08:32;;;;;;;10.40;2.05;;;;;;;7.59;100.00;102760.88;5114295;28;19951;-71
2022/10/03 02:11:02;;;;;;;8.68;2.15;;;;;;;7.55;100.00;102761.94;5113892;28;20110;-71
2022/10/03 02:13:51;;;;;;;5.57;1.67;;;;;;;7.51;100.00;102761.25;5114251;28;20049;-69
2022/10/03 02:16:28;;;;;;;5.07;1.52;;;;;;;7.45;100.00;102763.31;5115027;28;20384;-71
2022/10/03 02:19:02;;;;;;;11.57;1.80;;;;;;;7.43;100.00;102757.25;5114597;28;20032;-71
2022/10/03 02:21:32;;;;;;;6.93;1.70;;;;;;;7.38;100.00;102765.41;5114754;28;20031;-69
2022/10/03 02:24:19;;;;;;;6.18;1.63;;;;;;;7.35;100.00;102765.53;5114061;28;20051;-71
2022/10/03 02:26:53;;;;;;;6.60;1.40;;;;;;;7.29;100.00;102758.72;5114350;28;20424;-72
2022/10/03 02:29:37;;;;;;;15.15;2.30;;;;;;;7.23;100.00;102757.22;5114029;28;20472;-71
2022/10/03 02:32:31;;;;;;;7.47;1.60;;;;;;;7.20;100.00;102754.72;5114474;28;20422;-71
2022/10/03 02:35:30;;;;;;;7.40;1.60;;;;;;;7.16;100.00;102757.56;5113984;28;20028;-72
2022/10/03 02:38:37;;;;;;;8.55;1.80;;;;;;;7.15;100.00;102754.09;5112564;28;20031;-71
2022/10/03 02:41:38;;;;;;;4.78;2.05;;;;;;;7.12;100.00;102759.53;5113110;28;20048;-71
2022/10/03 02:44:31;;;;;;;5.53;1.53;;;;;;;7.04;100.00;102759.00;5067676;28;20036;-71
2022/10/03 02:47:18;;;;;;;4.65;1.63;;;;;;;6.98;100.00;102756.63;5114058;28;20458;-71
2022/10/03 02:50:23;;;;;;;9.85;1.73;;;;;;;6.96;100.00;102764.63;5114110;28;20032;-71
2022/10/03 02:53:14;;;;;;;4.57;1.60;;;;;;;6.94;100.00;102768.25;5113917;28;20543;-71
2022/10/03 02:56:26;;;;;;;5.25;1.48;;;;;;;6.88;100.00;102769.38;5113825;28;20531;-71
2022/10/03 02:59:16;;;;;;;2.35;1.10;;;;;;;6.83;100.00;102763.44;5050604;28;20036;-71
2022/10/03 03:02:18;;;;;;;7.32;1.70;;;;;;;6.81;100.00;102770.63;5110678;28;20076;-71
2022/10/03 03:04:49;;;;;;;5.80;1.70;;;;;;;6.79;100.00;102768.03;5112209;28;20543;-71
2022/10/03 03:07:37;;;;;;;6.60;1.42;;;;;;;6.75;100.00;102776.16;5113337;28;20035;-71
2022/10/03 03:10:27;;;;;;;6.97;1.52;;;;;;;6.74;100.00;102772.66;5113480;28;20511;-72
2022/10/03 03:12:55;;;;;;;10.88;1.67;;;;;;;6.78;100.00;102773.41;5114160;28;20032;-72
2022/10/03 03:15:46;;;;;;;7.07;1.02;;;;;;;6.81;100.00;102767.97;5112448;28;20418;-71
2022/10/03 03:18:26;;;;;;;4.55;1.20;;;;;;;6.88;100.00;102772.91;5113484;28;20098;-71
2022/10/03 03:21:09;;;;;;;2.85;1.20;;;;;;;7.02;100.00;102767.00;5113648;28;20336;-72
2022/10/03 03:23:59;;;;;;;5.32;1.40;;;;;;;7.19;100.00;102768.88;5113448;28;20043;-71
2022/10/03 03:26:46;;;;;;;7.20;1.83;;;;;;;7.39;100.00;102767.13;5113667;28;20486;-71
2022/10/03 03:29:37;;;;;;;4.93;1.50;;;;;;;7.55;100.00;102773.44;5114174;28;20031;-72
2022/10/03 03:32:26;;;;;;;6.82;1.70;;;;;;;7.69;100.00;102775.41;5113728;28;20028;-71
2022/10/03 03:35:11;;;;;;;5.80;1.52;;;;;;;7.82;100.00;102775.66;5113505;28;20349;-72
2022/10/03 03:38:13;;;;;;;12.25;2.00;;;;;;;7.92;100.00;102774.28;5113301;28;20028;-69
2022/10/03 03:40:56;;;;;;;6.97;1.90;;;;;;;8.04;100.00;102779.94;5110113;28;20050;-71
2022/10/03 03:43:27;;;;;;;5.95;1.80;;;;;;;8.13;100.00;102771.53;5113309;28;20030;-71
2022/10/03 03:46:13;;;;;;;7.65;1.75;;;;;;;8.22;100.00;102776.38;5113016;28;20028;-71
2022/10/03 03:49:08;;;;;;;3.60;1.42;;;;;;;8.30;100.00;102776.88;5113077;28;20032;-69
2022/10/03 03:51:49;;;;;;;7.78;1.77;;;;;;;8.36;100.00;102775.69;5112851;28;20050;-72
2022/10/03 03:54:33;;;;;;;8.70;2.03;;;;;;;8.45;100.00;102779.72;5113411;28;20069;-71
2022/10/03 03:57:07;;;;;;;6.80;1.40;;;;;;;8.51;100.00;102778.53;5112962;28;20227;-71
2022/10/03 04:00:02;;;;;;;8.65;1.80;;;;;;;8.58;100.00;102782.59;5113121;28;20112;-71
2022/10/03 04:02:46;;;;;;;7.15;1.40;;;;;;;8.58;100.00;102778.16;5113346;28;20051;-71
2022/10/03 04:05:17;;;;;;;5.97;1.98;;;;;;;8.57;100.00;102780.88;5113510;28;20019;-71
2022/10/03 04:08:11;;;;;;;7.07;1.75;;;;;;;8.55;100.00;102780.09;5112608;28;20658;-70
2022/10/03 04:10:42;;;;;;;7.53;2.05;;;;;;;8.49;100.00;102778.59;5101935;28;20036;-71
2022/10/03 04:13:46;;;;;;;10.95;1.77;;;;;;;8.41;100.00;102784.28;5112994;28;20506;-71
2022/10/03 04:16:14;;;;;;;13.45;2.03;;;;;;;8.35;100.00;102783.75;5114005;28;20042;-71
2022/10/03 04:19:15;;;;;;;6.00;1.60;;;;;;;8.30;100.00;102781.31;5116327;28;20066;-73
2022/10/03 04:21:49;;;;;;;14.10;2.33;;;;;;;8.21;100.00;102782.63;5053546;28;20154;-71
2022/10/03 04:24:56;;;;;;;4.55;1.60;;;;;;;8.12;100.00;102781.28;5106558;28;20479;-71
2022/10/03 04:27:53;;;;;;;4.35;1.60;;;;;;;8.04;100.00;102786.09;5107304;28;20043;-71
2022/10/03 04:30:28;;;;;;;4.53;1.55;;;;;;;8.03;100.00;102786.16;5116426;28;20050;-71
2022/10/03 04:32:59;;;;;;;5.38;1.52;;;;;;;8.06;100.00;102788.66;5116240;28;20111;-71
2022/10/03 04:35:30;;;;;;;2.53;1.45;;;;;;;8.12;100.00;102799.84;5116521;28;20059;-71
2022/10/03 04:38:11;;;;;;;2.67;1.30;;;;;;;8.20;100.00;102801.28;5116181;28;20036;-72
2022/10/03 04:41:12;;;;;;;6.65;1.70;;;;;;;8.32;100.00;102799.81;5116642;28;20062;-71
2022/10/03 04:43:52;;;;;;;7.38;2.15;;;;;;;8.41;100.00;102808.16;5105276;28;20051;-71
2022/10/03 04:46:38;;;;;;;8.02;2.05;;;;;;;8.50;100.00;102801.56;5116238;28;20107;-71
2022/10/03 04:49:17;;;;;;;7.03;1.95;;;;;;;8.59;100.00;102797.59;5115892;28;20059;-71
2022/10/03 04:52:00;;;;;;;7.25;1.88;;;;;;;8.64;100.00;102798.19;5115961;28;20042;-71
2022/10/03 04:54:42;;;;;;;4.85;1.65;;;;;;;8.70;100.00;102802.34;5116331;28;20384;-72
2022/10/03 04:57:10;;;;;;;5.80;1.67;;;;;;;8.71;100.00;102799.59;5115437;28;20540;-72
2022/10/03 04:59:45;;;;;;;8.85;1.75;;;;;;;8.69;100.00;102798.84;5115824;28;20066;-71
2022/10/03 05:02:29;;;;;;;8.07;1.90;;;;;;;8.63;100.00;102796.50;5115630;28;20038;-71
2022/10/03 05:05:06;;;;;;;6.75;2.10;;;;;;;8.55;100.00;102804.81;5115860;28;20028;-71
2022/10/03 05:07:57;;;;;;;5.82;1.85;;;;;;;8.43;100.00;102803.66;5115555;28;20034;-72
2022/10/03 05:10:38;;;;;;;4.45;1.60;;;;;;;8.32;100.00;102798.00;5116026;28;20027;-72
2022/10/03 05:13:31;;;;;;;7.40;2.00;;;;;;;8.23;100.00;102799.31;5115145;28;20036;-71
2022/10/03 05:16:28;;;;;;;6.93;2.00;;;;;;;8.15;100.00;102797.97;5115889;28;20028;-71
2022/10/03 05:19:19;;;;;;;6.78;1.73;;;;;;;8.08;100.00;102795.63;5115426;28;20031;-71
2022/10/03 05:22:07;;;;;;;7.68;2.00;;;;;;;8.02;100.00;102795.94;5115384;28;20024;-72
2022/10/03 05:24:44;;;;;;;9.57;2.08;;;;;;;7.99;100.00;102796.06;5115628;28;20075;-71
2022/10/03 05:27:44;;;;;;;7.55;1.80;;;;;;;7.97;100.00;102800.56;5115320;28;20028;-72
2022/10/03 05:30:35;;;;;;;6.88;1.73;;;;;;;7.93;100.00;102804.34;5115436;28;20051;-72
2022/10/03 05:33:39;;;;;;;10.80;2.08;;;;;;;7.90;100.00;102799.19;5115224;28;20439;-72
2022/10/03 05:36:28;;;;;;;9.68;1.90;;;;;;;7.89;100.00;102802.75;5083319;28;20390;-71
2022/10/03 05:39:17;;;;;;;6.07;1.75;;;;;;;7.86;100.00;102808.19;5086037;28;20104;-69
2022/10/03 05:41:59;;;;;;;7.88;2.42;;;;;;;7.85;100.00;102806.47;5115312;28;20036;-71
2022/10/03 05:44:53;;;;;;;6.07;1.65;;;;;;;7.83;100.00;102808.34;5115286;28;20039;-71
2022/10/03 05:47:47;;;;;;;5.47;1.80;;;;;;;7.82;100.00;102814.56;5115142;28;20027;-71
2022/10/03 05:50:56;;;;;;;6.10;1.60;;;;;;;7.81;100.00;102811.06;5115013;28;20024;-71
2022/10/03 05:53:57;;;;;;;9.43;2.20;;;;;;;7.87;100.00;102812.59;5106753;28;20031;-71
2022/10/03 05:57:11;;;;;;;6.45;2.25;;;;;;;7.92;100.00;102816.72;5051726;28;20056;-71
2022/10/03 05:59:54;;;;;;;7.22;1.77;;;;;;;7.97;100.00;102820.94;5114896;28;20034;-72
2022/10/03 06:02:41;;;;;;;3.85;1.90;;;;;;;8.00;100.00;102819.00;5114946;28;20023;-70
2022/10/03 06:05:21;;;;;;;6.55;2.40;;;;;;;8.07;100.00;102809.81;5114755;28;20102;-71
2022/10/03 06:08:25;;;;;;;8.77;2.83;;;;;;;8.15;100.00;102812.09;5114418;28;20024;-71
2022/10/03 06:11:28;;;;;;;10.63;2.22;;;;;;;8.26;100.00;102814.22;5114261;28;20536;-71
2022/10/03 06:14:28;;;;;;;7.18;2.50;;;;;;;8.35;100.00;102821.72;5113540;28;20088;-71
2022/10/03 06:17:33;;;;;;;10.27;2.20;;;;;;;8.45;100.00;102816.88;5114729;28;20390;-71
2022/10/03 06:20:21;;;;;;;8.98;2.50;;;;;;;8.55;100.00;102815.44;5114710;27;20026;-70
2022/10/03 06:23:10;;;;;;;9.57;2.47;;;;;;;8.67;100.00;102821.06;5113643;28;20038;-71
2022/10/03 06:25:54;;;;;;;11.55;2.65;;;;;;;8.76;100.00;102817.94;5114378;28;20371;-71
2022/10/03 06:29:00;;;;;;;10.38;2.70;;;;;;;8.85;100.00;102820.13;5114225;28;20055;-71
2022/10/03 06:32:03;;;;;;;10.18;3.22;;;;;;;8.97;100.00;102824.81;5114595;28;20035;-71
2022/10/03 06:35:05;;;;;;;9.73;3.10;;;;;;;9.10;100.00;102826.81;5114411;28;20353;-72
2022/10/03 06:37:58;;;;;;;10.55;3.15;;;;;;;9.19;100.00;102831.63;5113686;28;20034;-72
2022/10/03 06:40:57;;;;;;;8.45;2.40;;;;;;;9.28;100.00;102831.13;5113714;28;20034;-71
2022/10/03 06:43:55;;;;;;;8.48;2.53;;;;;;;9.35;100.00;102832.53;5113644;28;20046;-72
2022/10/03 06:46:58;;;;;;;7.70;2.60;;;;;;;9.44;100.00;102827.69;5113962;28;20046;-72
2022/10/03 06:49:42;;;;;;;10.88;2.33;;;;;;;9.52;100.00;102834.28;5113331;28;20061;-72
2022/10/03 06:52:31;;;;;;;6.95;2.38;;;;;;;9.62;100.00;102834.63;5114197;28;20035;-71
2022/10/03 06:55:17;;;;;;;4.68;2.00;;;;;;;9.69;100.00;102832.50;5114247;28;20035;-71
2022/10/03 06:58:00;;;;;;;8.75;2.70;;;;;;;9.77;100.00;102837.41;5113939;28;20036;-71
2022/10/03 07:01:09;;;;;;;9.57;2.70;;;;;;;9.86;100.00;102839.53;5113904;28;20070;-71
2022/10/03 07:04:10;;;;;;;10.77;2.40;;;;;;;9.93;100.00;102840.91;5083355;28;20039;-71
2022/10/03 07:06:50;;;;;;;8.02;2.55;;;;;;;10.04;100.00;102846.47;5050537;28;20487;-71
2022/10/03 07:09:18;;;;;;;12.82;2.40;;;;;;;10.14;100.00;102852.13;5107044;28;20040;-71
2022/10/03 07:11:55;;;;;;;12.35;2.95;;;;;;;10.22;100.00;102860.53;5113532;28;20492;-71
2022/10/03 07:14:54;;;;;;;15.80;2.72;;;;;;;10.29;100.00;102860.19;5112501;28;20101;-74
2022/10/03 07:17:46;;;;;;;11.75;3.35;;;;;;;10.37;100.00;102864.16;5113571;28;20027;-71
2022/10/03 07:20:46;;;;;;;11.98;2.83;;;;;;;10.52;100.00;102867.72;5113389;28;20028;-71
2022/10/03 07:23:41;;;;;;;12.40;2.70;;;;;;;10.64;100.00;102871.47;5102164;28;20122;-71
2022/10/03 07:26:40;;;;;;;16.42;3.45;;;;;;;10.73;100.00;102862.09;5113568;28;20043;-71
2022/10/03 07:29:55;;;;;;;18.08;3.20;;;;;;;10.81;100.00;102872.28;5112944;28;20443;-70
2022/10/03 07:32:41;;;;;;;15.27;3.65;;;;;;;10.91;100.00;102868.13;5113635;28;20409;-72
2022/10/03 07:38:56;;;;;;;9.77;2.70;;;;;;;11.13;100.00;102865.03;5091035;28;20137;-71
2022/10/03 07:41:50;;;;;;;10.60;2.88;;;;;;;11.29;100.00;102863.16;5113240;28;20100;-71
2022/10/03 07:44:53;;;;;;;6.13;2.08;;;;;;;11.44;100.00;102861.34;5112820;28;20053;-71
2022/10/03 07:47:56;;;;;;;8.68;2.50;;;;;;;11.62;100.00;102869.16;5112821;28;20059;-71
2022/10/03 07:50:43;;;;;;;10.00;2.55;;;;;;;11.86;100.00;102866.72;5112969;28;20058;-70
2022/10/03 07:53:14;;;;;;;8.38;2.38;;;;;;;12.08;100.00;102860.91;5116775;28;20102;-72
2022/10/03 07:56:01;;;;;;;10.55;2.60;;;;;;;12.34;100.00;102853.84;5117025;28;20421;-75
2022/10/03 07:58:50;;;;;;;9.52;2.30;;;;;;;12.61;100.00;102873.47;5116526;28;20049;-70
2022/10/03 08:01:34;;;;;;;6.75;2.40;;;;;;;12.74;100.00;102876.19;5086062;28;20046;-70
2022/10/03 08:04:34;;;;;;;8.45;2.30;;;;;;;12.80;100.00;102873.09;5117014;28;20031;-72
2022/10/03 08:07:09;;;;;;;7.40;2.25;;;;;;;12.83;100.00;102876.41;5116534;28;20122;-72
2022/10/03 08:09:40;;;;;;;16.50;3.92;;;;;;;12.92;100.00;102879.44;5116338;28;20185;-72
2022/10/03 08:12:40;;;;;;;8.90;2.30;;;;;;;13.18;100.00;102874.94;5116866;28;20123;-69
2022/10/03 08:15:33;;;;;;;6.50;2.22;;;;;;;13.62;100.00;102879.03;5115394;28;20059;-71
2022/10/03 08:18:27;;;;;;;7.68;2.40;;;;;;;14.22;100.00;102877.34;5116350;28;20031;-71
2022/10/03 08:21:00;;;;;;;8.38;2.25;;;;;;;14.85;100.00;102879.81;5116120;28;20047;-70
2022/10/03 08:23:26;;;;;;;12.93;2.70;;;;;;;15.15;100.00;102878.41;5116260;28;20177;-71
2022/10/03 08:26:19;;;;;;;13.45;2.13;;;;;;;15.26;100.00;102883.81;5116035;28;20077;-71
2022/10/03 08:28:44;;;;;;;11.98;2.20;;;;;;;15.23;100.00;102872.50;5115796;28;20088;-71
2022/10/03 08:31:34;;;;;;;12.15;3.10;;;;;;;14.92;100.00;102883.75;5116167;28;20027;-73
2022/10/03 08:34:11;;;;;;;8.07;2.20;;;;;;;14.58;100.00;102880.06;5116149;28;20035;-72
2022/10/03 08:36:44;;;;;;;9.93;2.35;;;;;;;14.66;100.00;102880.41;5115901;28;20055;-72
2022/10/03 08:39:32;;;;;;;7.68;2.28;;;;;;;15.12;100.00;102884.91;5115615;28;20380;-72
2022/10/03 08:42:25;;;;;;;8.70;2.50;;;;;;;16.06;100.00;102884.66;5107390;28;20078;-72
2022/10/03 08:45:15;;;;;;;11.70;2.80;;;;;;;17.51;97.50;102877.81;5116008;28;20110;-71
2022/10/03 08:48:25;;;;;;;7.53;2.30;;;;;;;18.89;85.30;102868.94;5116251;28;20074;-72
2022/10/03 08:51:09;;;;;;;13.85;2.90;;;;;;;20.10;76.47;102870.88;5099098;28;20031;-70
2022/10/03 08:53:37;;;;;;;8.05;2.40;;;;;;;21.82;65.05;102874.75;5115391;28;20036;-71
2022/10/03 08:56:11;;;;;;;10.38;2.25;;;;;;;22.61;58.62;102865.44;5115474;28;20032;-71
2022/10/03 08:59:06;;;;;;;8.25;2.10;;;;;;;22.66;55.94;102863.91;5115596;28;20070;-71
2022/10/03 09:01:37;;;;;;;13.27;2.47;;;;;;;22.30;54.97;102863.34;5115234;28;20360;-70
2022/10/03 09:04:38;;;;;;;20.42;2.95;;;;;;;21.02;63.83;102866.94;5115013;28;20395;-72
2022/10/03 09:07:19;;;;;;;17.48;3.40;;;;;;;20.06;69.57;102868.47;5116104;28;20036;-70
2022/10/03 09:09:44;;;;;;;7.30;1.60;;;;;;;19.58;67.01;102868.72;5115285;28;20036;-71
2022/10/03 09:12:41;;;;;;;8.73;2.55;;;;;;;18.86;70.29;102866.53;5115632;28;20042;-71
2022/10/03 09:15:10;;;;;;;12.43;2.00;;;;;;;17.99;78.59;102870.91;5115105;28;20068;-71
2022/10/03 09:17:42;;;;;;;8.90;2.13;;;;;;;17.44;78.54;102872.09;5115232;28;20031;-72
2022/10/03 09:20:41;;;;;;;13.68;1.73;;;;;;;16.89;85.42;102868.84;5115269;28;20079;-72
2022/10/03 09:23:25;;;;;;;11.93;1.80;;;;;;;16.45;91.78;102862.66;5115197;28;20051;-73
2022/10/03 09:26:04;;;;;;;10.30;2.38;;;;;;;16.22;94.55;102860.06;5114989;28;20028;-72
2022/10/03 09:28:51;;;;;;;10.60;2.38;;;;;;;15.97;97.18;102869.28;5115140;28;20063;-72
2022/10/03 09:31:38;;;;;;;15.27;2.10;;;;;;;15.82;99.02;102871.38;5114444;28;20386;-72
2022/10/03 09:34:37;;;;;;;10.23;2.05;;;;;;;15.66;99.39;102874.44;5115041;28;20097;-72
2022/10/03 09:37:31;;;;;;;12.90;2.35;;;;;;;15.49;100.00;102870.41;5115271;28;20028;-73
2022/10/03 09:40:32;;;;;;;10.25;2.55;;;;;;;15.34;100.00;102876.00;5114633;28;20023;-73
2022/10/03 09:43:29;;;;;;;;;;;;;;;15.21;100.00;102866.38;5115811;28;20101;-72
2022/10/03 09:46:03;;;;;;;13.65;2.42;;;;;;;15.09;100.00;102865.50;5115263;28;19926;-73
2022/10/03 09:48:47;;;;;;;10.95;2.60;;;;;;;15.01;100.00;102870.63;5114644;28;20446;-73
2022/10/03 09:51:24;;;;;;;11.35;2.67;;;;;;;14.89;100.00;102862.53;5114789;28;20027;-72
2022/10/03 09:54:07;;;;;;;10.73;2.60;;;;;;;14.83;100.00;102860.34;5114686;28;20089;-73
2022/10/03 09:56:51;;;;;;;9.60;2.88;;;;;;;14.87;100.00;102863.63;5114901;28;20031;-74
2022/10/03 09:59:56;;;;;;;13.50;2.58;;;;;;;15.00;100.00;102864.38;5114967;28;20061;-74
2022/10/03 10:02:46;;;;;;;8.60;2.53;;;;;;;15.08;100.00;102867.34;5112147;28;20472;-74
2022/10/03 10:05:23;;;;;;;10.43;2.53;;;;;;;15.14;100.00;102866.84;5114448;28;20089;-73
2022/10/03 10:07:51;;;;;;;9.18;2.40;;;;;;;15.11;100.00;102869.78;5114245;28;20476;-74
2022/10/03 10:10:23;;;;;;;12.48;2.20;;;;;;;15.12;100.00;102867.94;5114167;28;20050;-74
2022/10/03 10:12:51;;;;;;;;;;;;;;;15.09;100.00;102863.69;5115845;28;20093;-74
2022/10/03 10:15:58;;;;;;;6.72;1.90;;;;;;;15.11;100.00;102860.91;5112477;28;20287;-73
2022/10/03 10:18:30;;;;;;;11.30;2.08;;;;;;;15.13;100.00;102857.09;5114245;28;20479;-72
2022/10/03 10:21:19;;;;;;;9.77;2.20;;;;;;;15.12;100.00;102868.81;5114119;28;20027;-73
2022/10/03 10:23:54;;;;;;;9.32;2.50;;;;;;;15.11;100.00;102864.41;5114328;28;20052;-73
2022/10/03 10:26:52;;;;;;;9.23;2.47;;;;;;;15.02;100.00;102865.13;5114473;28;20380;-73
2022/10/03 10:29:39;;;;;;;9.82;2.50;;;;;;;15.03;100.00;102861.47;5079985;28;20042;-73
2022/10/03 10:32:28;;;;;;;12.65;2.15;;;;;;;15.03;100.00;102864.16;5114086;28;20102;-74
2022/10/03 10:35:27;;;;;;;24.85;4.00;;;;;;;15.00;100.00;102867.06;5114001;28;20035;-75
2022/10/03 10:38:24;;;;;;;7.82;1.90;;;;;;;14.93;100.00;102868.53;5113058;28;20111;-74
2022/10/03 10:41:05;;;;;;;12.95;2.30;;;;;;;14.84;100.00;102864.72;5113837;28;20020;-74
2022/10/03 10:43:55;;;;;;;8.70;2.30;;;;;;;14.76;100.00;102859.97;5114208;28;20031;-73
2022/10/03 10:46:39;;;;;;;10.90;2.35;;;;;;;14.73;100.00;102865.53;5113836;28;20106;-73
2022/10/03 10:49:19;;;;;;;9.63;2.65;;;;;;;14.69;100.00;102858.72;5113608;28;20487;-73
2022/10/03 10:52:22;;;;;;;15.85;3.08;;;;;;;14.66;100.00;102861.63;5113870;28;20024;-73
2022/10/03 10:55:24;;;;;;;10.43;2.50;;;;;;;14.58;100.00;102864.84;5113538;28;20089;-74
2022/10/03 10:58:39;;;;;;;15.18;2.60;;;;;;;14.55;100.00;102864.22;5112246;28;20108;-73
2022/10/03 11:01:26;;;;;;;16.20;3.08;;;;;;;14.53;100.00;102858.16;5114212;28;20376;-73
2022/10/03 11:04:29;;;;;;;12.60;2.50;;;;;;;14.56;100.00;102863.28;5113586;28;20035;-72
2022/10/03 11:07:24;;;;;;;11.90;2.58;;;;;;;14.71;100.00;102855.94;5113512;28;20352;-72
2022/10/03 11:10:15;;;;;;;11.45;2.63;;;;;;;14.97;100.00;102869.97;5113073;28;20035;-73
2022/10/03 11:13:02;;;;;;;7.53;2.00;;;;;;;15.18;100.00;102864.78;5113814;28;20341;-74
2022/10/03 11:15:52;;;;;;;10.02;2.22;;;;;;;15.41;100.00;102856.78;5113439;28;20472;-73
2022/10/03 11:18:45;;;;;;;11.93;2.28;;;;;;;15.61;100.00;102860.53;5113753;28;20028;-73
2022/10/03 11:21:26;;;;;;;16.05;2.90;;;;;;;15.68;100.00;102867.97;5113473;28;20024;-73
2022/10/03 11:24:12;;;;;;;11.45;2.40;;;;;;;15.75;100.00;102851.34;5113022;28;20118;-73
2022/10/03 11:27:16;;;;;;;7.68;2.20;;;;;;;15.70;99.42;102862.47;5115868;28;20042;-74
2022/10/03 11:30:00;;;;;;;15.57;2.45;;;;;;;15.63;100.00;102854.06;5118013;28;20030;-73
2022/10/03 11:32:48;;;;;;;12.18;2.40;;;;;;;15.65;100.00;102854.78;5117955;28;20040;-73
2022/10/03 11:35:47;;;;;;;10.93;2.47;;;;;;;15.61;100.00;102841.75;5117692;28;20153;-73
2022/10/03 11:38:46;;;;;;;8.90;2.10;;;;;;;15.62;100.00;102843.47;5117342;28;20031;-73
2022/10/03 11:41:34;;;;;;;13.45;2.20;;;;;;;15.70;100.00;102846.38;5092133;28;20039;-74
2022/10/03 11:44:03;;;;;;;14.10;2.80;;;;;;;15.80;100.00;102844.69;5117295;28;20051;-74
2022/10/03 11:46:49;;;;;;;12.32;2.40;;;;;;;15.83;100.00;102841.75;5117134;28;20114;-74
2022/10/03 11:49:49;;;;;;;12.48;3.03;;;;;;;15.83;100.00;102840.91;5117439;28;20023;-73
2022/10/03 11:52:33;;;;;;;13.77;2.55;;;;;;;15.74;100.00;102845.16;5116866;28;20034;-73
2022/10/03 11:55:38;;;;;;;18.98;3.25;;;;;;;15.77;100.00;102839.53;5117295;28;20027;-74
2022/10/03 11:58:40;;;;;;;12.68;2.67;;;;;;;15.71;100.00;102839.19;5113688;28;20086;-75
2022/10/03 12:01:19;;;;;;;;;;;;;;;15.78;100.00;102832.34;5087888;28;20040;-74
2022/10/03 12:03:56;;;;;;;15.50;3.70;;;;;;;15.80;100.00;102836.63;5117434;28;20247;-73
2022/10/03 12:09:53;;;;;;;14.98;3.00;;;;;;;15.85;100.00;102845.19;5116984;28;20386;-74
2022/10/03 12:12:26;;;;;;;9.32;2.90;;;;;;;15.83;100.00;102838.22;5117038;28;20038;-74
2022/10/03 12:14:56;;;;;;;12.63;3.15;;;;;;;15.74;100.00;102834.41;5117086;28;20023;-74
2022/10/03 12:17:33;;;;;;;17.05;3.15;;;;;;;15.59;100.00;102835.66;5116656;28;20110;-74
2022/10/03 12:21:13;;;;;;;20.13;3.58;;;;;;;15.48;100.00;102836.50;5117194;28;20107;-74
2022/10/03 12:24:12;;;;;;;17.25;3.15;;;;;;;15.52;100.00;102830.81;4993594;28;20073;-74
2022/10/03 12:26:52;;;;;;;14.15;3.17;;;;;;;15.58;100.00;102832.09;5052671;28;20489;-74
2022/10/03 12:29:20;;;;;;;14.88;3.33;;;;;;;15.60;100.00;102827.50;5114800;28;20020;-74
2022/10/03 12:31:54;;;;;;;19.20;3.42;;;;;;;15.67;100.00;102834.06;5115564;28;20095;-74
2022/10/03 12:34:52;;;;;;;13.75;3.10;;;;;;;15.68;100.00;102832.22;5115039;28;20032;-74
2022/10/03 12:37:29;;;;;;;15.57;3.53;;;;;;;15.67;100.00;102831.38;5058950;28;20040;-73
2022/10/03 12:40:03;;;;;;;16.13;3.25;;;;;;;15.60;100.00;102834.66;5115315;28;20137;-74
2022/10/03 12:43:06;;;;;;;15.15;3.33;;;;;;;15.49;100.00;102830.16;5115246;28;20372;-73
2022/10/03 12:45:42;;;;;;;15.57;3.13;;;;;;;15.38;100.00;102827.50;5114245;28;20156;-73
2022/10/03 12:48:26;;;;;;;14.02;2.78;;;;;;;15.27;100.00;102822.97;5114698;28;20073;-73
2022/10/03 12:51:02;;;;;;;22.38;3.90;;;;;;;15.16;100.00;102818.47;5114817;28;20464;-74
2022/10/03 12:53:59;;;;;;;11.50;2.90;;;;;;;15.07;100.00;102822.72;5114776;28;20020;-74
2022/10/03 12:56:46;;;;;;;17.30;3.35;;;;;;;14.97;100.00;102817.25;5103330;28;20424;-73
2022/10/03 12:59:21;;;;;;;17.52;3.80;;;;;;;14.85;100.00;102820.88;5114215;28;20064;-73
2022/10/03 13:02:05;;;;;;;11.48;2.90;;;;;;;14.77;100.00;102820.63;5114454;28;20031;-73